sensor_id;sensor_type;location;lat;lon;timestamp;P1;durP1;ratioP1;P2;durP2;ratioP2
12118;SDS011;6123;48.864;9.200;2023-04-06T00:01:47;9.95;;;7.13;;
12118;SDS011;6123;48.864;9.200;2023-04-06T00:04:12;7.47;;;6.78;;
12118;SDS011;6123;48.864;9.200;2023-04-06T00:06:38;7.53;;;6.78;;
12118;SDS011;6123;48.864;9.200;2023-04-06T00:09:04;7.32;;;6.63;;
12118;SDS011;6123;48.864;9.200;2023-04-06T00:11:32;6.97;;;6.38;;
12118;SDS011;6123;48.864;9.200;2023-04-06T00:14:00;7.38;;;6.40;;
12118;SDS011;6123;48.864;9.200;2023-04-06T00:16:28;8.38;;;7.07;;
12118;SDS011;6123;48.864;9.200;2023-04-06T00:18:53;7.07;;;6.45;;
12118;SDS011;6123;48.864;9.200;2023-04-06T00:21:19;7.25;;;6.55;;
12118;SDS011;6123;48.864;9.200;2023-04-06T00:23:47;8.27;;;7.20;;
12118;SDS011;6123;48.864;9.200;2023-04-06T00:26:13;7.30;;;6.63;;
12118;SDS011;6123;48.864;9.200;2023-04-06T00:28:38;7.20;;;6.50;;
12118;SDS011;6123;48.864;9.200;2023-04-06T00:31:06;8.18;;;7.07;;
12118;SDS011;6123;48.864;9.200;2023-04-06T00:33:32;7.47;;;6.85;;
12118;SDS011;6123;48.864;9.200;2023-04-06T00:35:58;6.75;;;6.15;;
12118;SDS011;6123;48.864;9.200;2023-04-06T00:38:23;6.95;;;6.35;;
12118;SDS011;6123;48.864;9.200;2023-04-06T00:40:49;8.23;;;7.15;;
12118;SDS011;6123;48.864;9.200;2023-04-06T00:43:15;9.55;;;7.18;;
12118;SDS011;6123;48.864;9.200;2023-04-06T00:45:41;7.85;;;7.18;;
12118;SDS011;6123;48.864;9.200;2023-04-06T00:48:09;7.82;;;7.10;;
12118;SDS011;6123;48.864;9.200;2023-04-06T00:50:34;7.85;;;7.07;;
12118;SDS011;6123;48.864;9.200;2023-04-06T00:53:00;7.95;;;7.10;;
12118;SDS011;6123;48.864;9.200;2023-04-06T00:55:29;7.28;;;6.60;;
12118;SDS011;6123;48.864;9.200;2023-04-06T00:57:55;7.68;;;6.50;;
12118;SDS011;6123;48.864;9.200;2023-04-06T01:00:23;7.57;;;6.95;;
12118;SDS011;6123;48.864;9.200;2023-04-06T01:02:49;7.18;;;6.57;;
12118;SDS011;6123;48.864;9.200;2023-04-06T01:05:17;7.82;;;7.13;;
12118;SDS011;6123;48.864;9.200;2023-04-06T01:07:43;7.80;;;6.78;;
12118;SDS011;6123;48.864;9.200;2023-04-06T01:10:09;9.85;;;6.47;;
12118;SDS011;6123;48.864;9.200;2023-04-06T01:12:35;6.88;;;6.28;;
12118;SDS011;6123;48.864;9.200;2023-04-06T01:15:02;7.60;;;6.85;;
12118;SDS011;6123;48.864;9.200;2023-04-06T01:17:31;8.60;;;7.90;;
12118;SDS011;6123;48.864;9.200;2023-04-06T01:19:56;8.30;;;7.20;;
12118;SDS011;6123;48.864;9.200;2023-04-06T01:22:24;8.15;;;7.30;;
12118;SDS011;6123;48.864;9.200;2023-04-06T01:24:50;8.23;;;7.25;;
12118;SDS011;6123;48.864;9.200;2023-04-06T01:27:16;7.60;;;6.90;;
12118;SDS011;6123;48.864;9.200;2023-04-06T01:29:41;8.05;;;7.35;;
12118;SDS011;6123;48.864;9.200;2023-04-06T01:32:12;7.43;;;6.82;;
12118;SDS011;6123;48.864;9.200;2023-04-06T01:34:37;7.38;;;6.78;;
12118;SDS011;6123;48.864;9.200;2023-04-06T01:37:06;7.40;;;6.70;;
12118;SDS011;6123;48.864;9.200;2023-04-06T01:39:31;8.02;;;7.32;;
12118;SDS011;6123;48.864;9.200;2023-04-06T01:41:59;7.13;;;6.43;;
12118;SDS011;6123;48.864;9.200;2023-04-06T01:44:25;6.88;;;6.28;;
12118;SDS011;6123;48.864;9.200;2023-04-06T01:46:51;7.00;;;6.30;;
12118;SDS011;6123;48.864;9.200;2023-04-06T01:49:22;6.82;;;6.20;;
12118;SDS011;6123;48.864;9.200;2023-04-06T01:51:47;6.70;;;6.10;;
12118;SDS011;6123;48.864;9.200;2023-04-06T01:54:13;6.65;;;6.15;;
12118;SDS011;6123;48.864;9.200;2023-04-06T01:56:38;6.18;;;5.68;;
12118;SDS011;6123;48.864;9.200;2023-04-06T01:59:05;7.47;;;6.80;;
12118;SDS011;6123;48.864;9.200;2023-04-06T02:01:31;6.57;;;5.97;;
12118;SDS011;6123;48.864;9.200;2023-04-06T02:03:56;6.40;;;5.90;;
12118;SDS011;6123;48.864;9.200;2023-04-06T02:06:22;7.00;;;6.30;;
12118;SDS011;6123;48.864;9.200;2023-04-06T02:08:47;7.13;;;6.43;;
12118;SDS011;6123;48.864;9.200;2023-04-06T02:11:13;7.00;;;6.30;;
12118;SDS011;6123;48.864;9.200;2023-04-06T02:13:39;7.10;;;6.53;;
12118;SDS011;6123;48.864;9.200;2023-04-06T02:16:04;7.13;;;6.43;;
12118;SDS011;6123;48.864;9.200;2023-04-06T02:18:31;6.68;;;6.18;;
12118;SDS011;6123;48.864;9.200;2023-04-06T02:20:59;7.57;;;6.80;;
12118;SDS011;6123;48.864;9.200;2023-04-06T02:23:25;7.25;;;6.63;;
12118;SDS011;6123;48.864;9.200;2023-04-06T02:25:54;6.75;;;6.15;;
12118;SDS011;6123;48.864;9.200;2023-04-06T02:28:19;6.97;;;6.28;;
12118;SDS011;6123;48.864;9.200;2023-04-06T02:30:45;6.90;;;6.30;;
12118;SDS011;6123;48.864;9.200;2023-04-06T02:33:11;6.35;;;5.85;;
12118;SDS011;6123;48.864;9.200;2023-04-06T02:35:37;7.03;;;6.43;;
12118;SDS011;6123;48.864;9.200;2023-04-06T02:38:02;6.88;;;6.28;;
12118;SDS011;6123;48.864;9.200;2023-04-06T02:40:28;5.75;;;5.22;;
12118;SDS011;6123;48.864;9.200;2023-04-06T02:42:54;6.80;;;5.82;;
12118;SDS011;6123;48.864;9.200;2023-04-06T02:45:20;6.13;;;5.57;;
12118;SDS011;6123;48.864;9.200;2023-04-06T02:47:45;7.50;;;6.65;;
12118;SDS011;6123;48.864;9.200;2023-04-06T02:50:13;6.85;;;6.25;;
12118;SDS011;6123;48.864;9.200;2023-04-06T02:52:40;9.40;;;6.80;;
12118;SDS011;6123;48.864;9.200;2023-04-06T02:55:06;7.30;;;6.60;;
12118;SDS011;6123;48.864;9.200;2023-04-06T02:57:32;6.57;;;5.97;;
12118;SDS011;6123;48.864;9.200;2023-04-06T02:59:58;6.40;;;5.90;;
12118;SDS011;6123;48.864;9.200;2023-04-06T03:02:23;6.47;;;5.88;;
12118;SDS011;6123;48.864;9.200;2023-04-06T03:04:50;8.82;;;6.05;;
12118;SDS011;6123;48.864;9.200;2023-04-06T03:07:15;6.57;;;5.88;;
12118;SDS011;6123;48.864;9.200;2023-04-06T03:09:41;6.72;;;6.13;;
12118;SDS011;6123;48.864;9.200;2023-04-06T03:12:07;6.43;;;5.90;;
12118;SDS011;6123;48.864;9.200;2023-04-06T03:14:32;7.25;;;6.55;;
12118;SDS011;6123;48.864;9.200;2023-04-06T03:17:00;7.30;;;6.57;;
12118;SDS011;6123;48.864;9.200;2023-04-06T03:19:27;6.07;;;5.68;;
12118;SDS011;6123;48.864;9.200;2023-04-06T03:21:55;6.50;;;5.95;;
12118;SDS011;6123;48.864;9.200;2023-04-06T03:24:21;6.70;;;6.10;;
12118;SDS011;6123;48.864;9.200;2023-04-06T03:26:46;8.02;;;7.30;;
12118;SDS011;6123;48.864;9.200;2023-04-06T03:29:16;6.82;;;6.22;;
12118;SDS011;6123;48.864;9.200;2023-04-06T03:31:42;6.65;;;6.07;;
12118;SDS011;6123;48.864;9.200;2023-04-06T03:34:10;7.10;;;6.47;;
12118;SDS011;6123;48.864;9.200;2023-04-06T03:36:36;6.88;;;6.28;;
12118;SDS011;6123;48.864;9.200;2023-04-06T03:39:04;6.80;;;6.20;;
12118;SDS011;6123;48.864;9.200;2023-04-06T03:41:29;6.85;;;6.20;;
12118;SDS011;6123;48.864;9.200;2023-04-06T03:43:57;7.03;;;6.38;;
12118;SDS011;6123;48.864;9.200;2023-04-06T03:46:23;7.15;;;6.55;;
12118;SDS011;6123;48.864;9.200;2023-04-06T03:48:49;7.05;;;6.35;;
12118;SDS011;6123;48.864;9.200;2023-04-06T03:51:17;6.60;;;6.00;;
12118;SDS011;6123;48.864;9.200;2023-04-06T03:53:43;7.05;;;6.03;;
12118;SDS011;6123;48.864;9.200;2023-04-06T03:56:11;7.18;;;6.50;;
12118;SDS011;6123;48.864;9.200;2023-04-06T03:58:38;7.72;;;7.00;;
12118;SDS011;6123;48.864;9.200;2023-04-06T04:01:06;7.85;;;6.90;;
12118;SDS011;6123;48.864;9.200;2023-04-06T04:03:32;6.85;;;6.20;;
12118;SDS011;6123;48.864;9.200;2023-04-06T04:05:57;6.90;;;6.30;;
12118;SDS011;6123;48.864;9.200;2023-04-06T04:08:23;6.32;;;5.72;;
12118;SDS011;6123;48.864;9.200;2023-04-06T04:10:49;6.60;;;6.00;;
12118;SDS011;6123;48.864;9.200;2023-04-06T04:13:15;6.55;;;5.95;;
12118;SDS011;6123;48.864;9.200;2023-04-06T04:15:41;7.03;;;6.43;;
12118;SDS011;6123;48.864;9.200;2023-04-06T04:18:06;6.85;;;6.25;;
12118;SDS011;6123;48.864;9.200;2023-04-06T04:20:36;7.38;;;6.53;;
12118;SDS011;6123;48.864;9.200;2023-04-06T04:23:02;8.32;;;7.45;;
12118;SDS011;6123;48.864;9.200;2023-04-06T04:25:28;8.02;;;7.22;;
12118;SDS011;6123;48.864;9.200;2023-04-06T04:27:56;6.55;;;5.95;;
12118;SDS011;6123;48.864;9.200;2023-04-06T04:30:22;7.22;;;6.63;;
12118;SDS011;6123;48.864;9.200;2023-04-06T04:32:47;7.07;;;6.35;;
12118;SDS011;6123;48.864;9.200;2023-04-06T04:35:13;7.05;;;6.45;;
12118;SDS011;6123;48.864;9.200;2023-04-06T04:37:40;7.43;;;6.72;;
12118;SDS011;6123;48.864;9.200;2023-04-06T04:40:06;7.20;;;6.57;;
12118;SDS011;6123;48.864;9.200;2023-04-06T04:42:35;7.13;;;6.43;;
12118;SDS011;6123;48.864;9.200;2023-04-06T04:45:00;7.22;;;6.63;;
12118;SDS011;6123;48.864;9.200;2023-04-06T04:47:29;7.40;;;6.70;;
12118;SDS011;6123;48.864;9.200;2023-04-06T04:49:54;7.72;;;7.03;;
12118;SDS011;6123;48.864;9.200;2023-04-06T04:52:23;7.35;;;6.65;;
12118;SDS011;6123;48.864;9.200;2023-04-06T04:54:53;7.78;;;6.82;;
12118;SDS011;6123;48.864;9.200;2023-04-06T04:57:18;7.25;;;6.45;;
12118;SDS011;6123;48.864;9.200;2023-04-06T04:59:44;7.28;;;6.57;;
12118;SDS011;6123;48.864;9.200;2023-04-06T05:02:12;6.75;;;6.15;;
12118;SDS011;6123;48.864;9.200;2023-04-06T05:04:38;6.38;;;5.78;;
12118;SDS011;6123;48.864;9.200;2023-04-06T05:07:05;7.82;;;7.03;;
12118;SDS011;6123;48.864;9.200;2023-04-06T05:09:31;8.65;;;7.85;;
12118;SDS011;6123;48.864;9.200;2023-04-06T05:12:00;8.05;;;7.28;;
12118;SDS011;6123;48.864;9.200;2023-04-06T05:14:26;8.93;;;8.10;;
12118;SDS011;6123;48.864;9.200;2023-04-06T05:16:55;8.27;;;7.50;;
12118;SDS011;6123;48.864;9.200;2023-04-06T05:19:21;8.20;;;7.40;;
12118;SDS011;6123;48.864;9.200;2023-04-06T05:21:49;8.25;;;7.45;;
12118;SDS011;6123;48.864;9.200;2023-04-06T05:24:16;7.07;;;6.47;;
12118;SDS011;6123;48.864;9.200;2023-04-06T05:26:44;7.78;;;7.07;;
12118;SDS011;6123;48.864;9.200;2023-04-06T05:29:11;8.73;;;7.82;;
12118;SDS011;6123;48.864;9.200;2023-04-06T05:31:39;8.88;;;8.07;;
12118;SDS011;6123;48.864;9.200;2023-04-06T05:34:05;9.02;;;8.13;;
12118;SDS011;6123;48.864;9.200;2023-04-06T05:36:31;9.38;;;8.40;;
12118;SDS011;6123;48.864;9.200;2023-04-06T05:38:57;8.25;;;7.43;;
12118;SDS011;6123;48.864;9.200;2023-04-06T05:41:25;8.55;;;7.75;;
12118;SDS011;6123;48.864;9.200;2023-04-06T05:43:53;9.55;;;8.02;;
12118;SDS011;6123;48.864;9.200;2023-04-06T05:46:19;7.32;;;6.72;;
12118;SDS011;6123;48.864;9.200;2023-04-06T05:48:45;8.45;;;7.60;;
12118;SDS011;6123;48.864;9.200;2023-04-06T05:51:10;7.65;;;6.95;;
12118;SDS011;6123;48.864;9.200;2023-04-06T05:53:38;8.18;;;7.47;;
12118;SDS011;6123;48.864;9.200;2023-04-06T05:56:04;7.85;;;7.13;;
12118;SDS011;6123;48.864;9.200;2023-04-06T05:58:30;8.32;;;7.38;;
12118;SDS011;6123;48.864;9.200;2023-04-06T06:00:59;7.10;;;6.40;;
12118;SDS011;6123;48.864;9.200;2023-04-06T06:03:25;7.65;;;6.93;;
12118;SDS011;6123;48.864;9.200;2023-04-06T06:05:51;9.90;;;6.63;;
12118;SDS011;6123;48.864;9.200;2023-04-06T06:08:17;7.20;;;6.50;;
12118;SDS011;6123;48.864;9.200;2023-04-06T06:10:42;6.72;;;6.05;;
12118;SDS011;6123;48.864;9.200;2023-04-06T06:13:10;7.43;;;6.78;;
12118;SDS011;6123;48.864;9.200;2023-04-06T06:15:36;9.60;;;7.03;;
12118;SDS011;6123;48.864;9.200;2023-04-06T06:18:01;8.18;;;6.68;;
12118;SDS011;6123;48.864;9.200;2023-04-06T06:20:30;8.35;;;7.60;;
12118;SDS011;6123;48.864;9.200;2023-04-06T06:22:55;9.40;;;8.55;;
12118;SDS011;6123;48.864;9.200;2023-04-06T06:25:21;9.25;;;7.75;;
12118;SDS011;6123;48.864;9.200;2023-04-06T06:27:47;8.30;;;7.65;;
12118;SDS011;6123;48.864;9.200;2023-04-06T06:30:15;8.98;;;8.10;;
12118;SDS011;6123;48.864;9.200;2023-04-06T06:32:41;8.60;;;7.70;;
12118;SDS011;6123;48.864;9.200;2023-04-06T06:35:06;8.07;;;7.38;;
12118;SDS011;6123;48.864;9.200;2023-04-06T06:37:32;7.85;;;7.15;;
12118;SDS011;6123;48.864;9.200;2023-04-06T06:39:58;9.93;;;8.07;;
12118;SDS011;6123;48.864;9.200;2023-04-06T06:42:23;8.43;;;7.57;;
12118;SDS011;6123;48.864;9.200;2023-04-06T06:44:52;8.52;;;7.70;;
12118;SDS011;6123;48.864;9.200;2023-04-06T06:47:21;9.27;;;8.23;;
12118;SDS011;6123;48.864;9.200;2023-04-06T06:49:47;8.63;;;7.70;;
12118;SDS011;6123;48.864;9.200;2023-04-06T06:52:15;9.00;;;7.82;;
12118;SDS011;6123;48.864;9.200;2023-04-06T06:54:41;8.25;;;7.47;;
12118;SDS011;6123;48.864;9.200;2023-04-06T06:57:09;9.20;;;7.82;;
12118;SDS011;6123;48.864;9.200;2023-04-06T06:59:35;8.10;;;7.40;;
12118;SDS011;6123;48.864;9.200;2023-04-06T07:02:00;10.52;;;9.00;;
12118;SDS011;6123;48.864;9.200;2023-04-06T07:04:26;10.27;;;8.82;;
12118;SDS011;6123;48.864;9.200;2023-04-06T07:06:54;10.23;;;8.80;;
12118;SDS011;6123;48.864;9.200;2023-04-06T07:09:22;8.75;;;7.90;;
12118;SDS011;6123;48.864;9.200;2023-04-06T07:11:51;9.20;;;8.25;;
12118;SDS011;6123;48.864;9.200;2023-04-06T07:14:17;9.35;;;8.40;;
12118;SDS011;6123;48.864;9.200;2023-04-06T07:16:45;9.32;;;8.43;;
12118;SDS011;6123;48.864;9.200;2023-04-06T07:19:11;8.60;;;7.80;;
12118;SDS011;6123;48.864;9.200;2023-04-06T07:21:37;9.60;;;8.60;;
12118;SDS011;6123;48.864;9.200;2023-04-06T07:24:03;8.50;;;7.47;;
12118;SDS011;6123;48.864;9.200;2023-04-06T07:26:31;9.75;;;8.52;;
12118;SDS011;6123;48.864;9.200;2023-04-06T07:28:56;9.65;;;8.65;;
12118;SDS011;6123;48.864;9.200;2023-04-06T07:31:22;9.25;;;7.95;;
12118;SDS011;6123;48.864;9.200;2023-04-06T07:33:50;8.77;;;7.97;;
12118;SDS011;6123;48.864;9.200;2023-04-06T07:36:16;8.73;;;8.00;;
12118;SDS011;6123;48.864;9.200;2023-04-06T07:38:41;8.88;;;7.97;;
12118;SDS011;6123;48.864;9.200;2023-04-06T07:41:07;9.30;;;8.50;;
12118;SDS011;6123;48.864;9.200;2023-04-06T07:43:33;10.43;;;8.63;;
12118;SDS011;6123;48.864;9.200;2023-04-06T07:46:06;8.93;;;8.13;;
12118;SDS011;6123;48.864;9.200;2023-04-06T07:48:32;9.90;;;8.90;;
12118;SDS011;6123;48.864;9.200;2023-04-06T07:51:00;8.70;;;7.85;;
12118;SDS011;6123;48.864;9.200;2023-04-06T07:53:30;9.63;;;8.50;;
12118;SDS011;6123;48.864;9.200;2023-04-06T07:55:56;9.35;;;8.40;;
12118;SDS011;6123;48.864;9.200;2023-04-06T07:58:23;9.30;;;8.45;;
12118;SDS011;6123;48.864;9.200;2023-04-06T08:00:51;9.45;;;8.55;;
12118;SDS011;6123;48.864;9.200;2023-04-06T08:03:16;9.13;;;8.27;;
12118;SDS011;6123;48.864;9.200;2023-04-06T08:05:42;9.13;;;8.23;;
12118;SDS011;6123;48.864;9.200;2023-04-06T08:08:08;10.68;;;8.13;;
12118;SDS011;6123;48.864;9.200;2023-04-06T08:10:34;9.10;;;8.30;;
12118;SDS011;6123;48.864;9.200;2023-04-06T08:13:02;10.27;;;9.27;;
12118;SDS011;6123;48.864;9.200;2023-04-06T08:15:27;13.98;;;10.57;;
12118;SDS011;6123;48.864;9.200;2023-04-06T08:17:53;9.38;;;8.52;;
12118;SDS011;6123;48.864;9.200;2023-04-06T08:20:22;10.13;;;9.13;;
12118;SDS011;6123;48.864;9.200;2023-04-06T08:22:49;9.10;;;8.15;;
12118;SDS011;6123;48.864;9.200;2023-04-06T08:25:15;8.52;;;7.72;;
12118;SDS011;6123;48.864;9.200;2023-04-06T08:27:41;8.85;;;8.05;;
12118;SDS011;6123;48.864;9.200;2023-04-06T08:30:06;9.23;;;8.32;;
12118;SDS011;6123;48.864;9.200;2023-04-06T08:32:32;8.65;;;7.88;;
12118;SDS011;6123;48.864;9.200;2023-04-06T08:34:58;9.48;;;7.80;;
12118;SDS011;6123;48.864;9.200;2023-04-06T08:37:24;8.70;;;7.90;;
12118;SDS011;6123;48.864;9.200;2023-04-06T08:39:50;9.25;;;8.35;;
12118;SDS011;6123;48.864;9.200;2023-04-06T08:42:19;8.07;;;7.28;;
12118;SDS011;6123;48.864;9.200;2023-04-06T08:44:46;9.63;;;8.60;;
12118;SDS011;6123;48.864;9.200;2023-04-06T08:47:13;9.13;;;8.32;;
12118;SDS011;6123;48.864;9.200;2023-04-06T08:49:39;8.90;;;8.10;;
12118;SDS011;6123;48.864;9.200;2023-04-06T08:52:07;9.32;;;8.45;;
12118;SDS011;6123;48.864;9.200;2023-04-06T08:54:33;7.95;;;7.25;;
12118;SDS011;6123;48.864;9.200;2023-04-06T08:57:01;8.57;;;7.78;;
12118;SDS011;6123;48.864;9.200;2023-04-06T08:59:31;7.65;;;6.95;;
12118;SDS011;6123;48.864;9.200;2023-04-06T09:01:57;6.50;;;5.90;;
12118;SDS011;6123;48.864;9.200;2023-04-06T09:04:24;7.93;;;7.22;;
12118;SDS011;6123;48.864;9.200;2023-04-06T09:06:51;9.85;;;6.85;;
12118;SDS011;6123;48.864;9.200;2023-04-06T09:09:18;8.57;;;7.55;;
12118;SDS011;6123;48.864;9.200;2023-04-06T09:11:47;8.15;;;7.43;;
12118;SDS011;6123;48.864;9.200;2023-04-06T09:14:32;8.70;;;7.80;;
12118;SDS011;6123;48.864;9.200;2023-04-06T09:17:02;7.72;;;7.05;;
12118;SDS011;6123;48.864;9.200;2023-04-06T09:19:28;8.30;;;7.50;;
12118;SDS011;6123;48.864;9.200;2023-04-06T09:22:01;7.38;;;6.75;;
12118;SDS011;6123;48.864;9.200;2023-04-06T09:24:28;7.22;;;6.53;;
12118;SDS011;6123;48.864;9.200;2023-04-06T09:27:07;7.28;;;6.60;;
12118;SDS011;6123;48.864;9.200;2023-04-06T09:29:32;7.53;;;6.60;;
12118;SDS011;6123;48.864;9.200;2023-04-06T09:32:05;9.69;;;7.38;;
12118;SDS011;6123;48.864;9.200;2023-04-06T09:34:31;7.35;;;6.57;;
12118;SDS011;6123;48.864;9.200;2023-04-06T09:36:58;7.47;;;6.78;;
12118;SDS011;6123;48.864;9.200;2023-04-06T09:39:24;7.53;;;6.57;;
12118;SDS011;6123;48.864;9.200;2023-04-06T09:41:51;8.07;;;7.32;;
12118;SDS011;6123;48.864;9.200;2023-04-06T09:44:17;7.22;;;6.53;;
12118;SDS011;6123;48.864;9.200;2023-04-06T09:46:45;7.82;;;7.13;;
12118;SDS011;6123;48.864;9.200;2023-04-06T09:49:11;8.00;;;7.20;;
12118;SDS011;6123;48.864;9.200;2023-04-06T09:51:40;7.63;;;6.93;;
12118;SDS011;6123;48.864;9.200;2023-04-06T09:54:18;7.30;;;6.60;;
12118;SDS011;6123;48.864;9.200;2023-04-06T09:56:47;7.28;;;6.57;;
12118;SDS011;6123;48.864;9.200;2023-04-06T09:59:31;7.35;;;6.70;;
12118;SDS011;6123;48.864;9.200;2023-04-06T10:02:35;8.55;;;7.75;;
12118;SDS011;6123;48.864;9.200;2023-04-06T10:08:00;8.38;;;7.63;;
12118;SDS011;6123;48.864;9.200;2023-04-06T10:10:30;7.97;;;7.28;;
12118;SDS011;6123;48.864;9.200;2023-04-06T10:12:58;7.88;;;7.18;;
12118;SDS011;6123;48.864;9.200;2023-04-06T10:15:25;8.35;;;7.53;;
12118;SDS011;6123;48.864;9.200;2023-04-06T10:17:52;7.30;;;6.70;;
12118;SDS011;6123;48.864;9.200;2023-04-06T10:20:28;8.10;;;7.40;;
12118;SDS011;6123;48.864;9.200;2023-04-06T10:22:58;8.55;;;7.75;;
12118;SDS011;6123;48.864;9.200;2023-04-06T10:25:54;7.93;;;7.22;;
12118;SDS011;6123;48.864;9.200;2023-04-06T10:28:21;8.63;;;7.82;;
12118;SDS011;6123;48.864;9.200;2023-04-06T10:30:49;8.55;;;7.85;;
12118;SDS011;6123;48.864;9.200;2023-04-06T10:33:24;9.50;;;8.70;;
12118;SDS011;6123;48.864;9.200;2023-04-06T10:35:52;9.13;;;8.23;;
12118;SDS011;6123;48.864;9.200;2023-04-06T10:38:20;8.35;;;7.65;;
12118;SDS011;6123;48.864;9.200;2023-04-06T10:40:49;8.05;;;7.35;;
12118;SDS011;6123;48.864;9.200;2023-04-06T10:43:18;8.35;;;7.65;;
12118;SDS011;6123;48.864;9.200;2023-04-06T10:45:45;8.48;;;7.55;;
12118;SDS011;6123;48.864;9.200;2023-04-06T10:48:23;8.13;;;7.43;;
12118;SDS011;6123;48.864;9.200;2023-04-06T10:50:54;7.95;;;7.32;;
12118;SDS011;6123;48.864;9.200;2023-04-06T10:53:26;8.20;;;7.40;;
12118;SDS011;6123;48.864;9.200;2023-04-06T10:55:56;8.80;;;7.90;;
12118;SDS011;6123;48.864;9.200;2023-04-06T10:58:25;8.07;;;7.38;;
12118;SDS011;6123;48.864;9.200;2023-04-06T11:00:52;8.75;;;7.95;;
12118;SDS011;6123;48.864;9.200;2023-04-06T11:03:20;8.57;;;7.82;;
12118;SDS011;6123;48.864;9.200;2023-04-06T11:05:48;8.73;;;7.88;;
12118;SDS011;6123;48.864;9.200;2023-04-06T11:08:25;7.78;;;7.10;;
12118;SDS011;6123;48.864;9.200;2023-04-06T11:11:08;8.13;;;7.43;;
12118;SDS011;6123;48.864;9.200;2023-04-06T11:16:12;8.70;;;7.80;;
12118;SDS011;6123;48.864;9.200;2023-04-06T11:18:49;9.32;;;8.43;;
12118;SDS011;6123;48.864;9.200;2023-04-06T11:21:35;9.02;;;7.82;;
12118;SDS011;6123;48.864;9.200;2023-04-06T11:24:25;8.93;;;8.02;;
12118;SDS011;6123;48.864;9.200;2023-04-06T11:26:55;8.02;;;7.07;;
12118;SDS011;6123;48.864;9.200;2023-04-06T11:29:23;7.75;;;7.15;;
12118;SDS011;6123;48.864;9.200;2023-04-06T11:31:52;7.97;;;7.28;;
12118;SDS011;6123;48.864;9.200;2023-04-06T11:34:19;7.75;;;7.13;;
12118;SDS011;6123;48.864;9.200;2023-04-06T11:36:47;8.48;;;7.72;;
12118;SDS011;6123;48.864;9.200;2023-04-06T11:39:18;8.00;;;7.20;;
12118;SDS011;6123;48.864;9.200;2023-04-06T11:42:01;8.57;;;7.78;;
12118;SDS011;6123;48.864;9.200;2023-04-06T11:44:37;6.95;;;6.38;;
12118;SDS011;6123;48.864;9.200;2023-04-06T11:47:08;7.43;;;6.82;;
12118;SDS011;6123;48.864;9.200;2023-04-06T11:49:39;7.72;;;6.93;;
12118;SDS011;6123;48.864;9.200;2023-04-06T11:52:15;7.78;;;7.18;;
12118;SDS011;6123;48.864;9.200;2023-04-06T11:54:41;7.47;;;6.72;;
12118;SDS011;6123;48.864;9.200;2023-04-06T11:57:09;9.23;;;8.15;;
12118;SDS011;6123;48.864;9.200;2023-04-06T11:59:35;7.72;;;6.95;;
12118;SDS011;6123;48.864;9.200;2023-04-06T12:02:01;7.22;;;6.63;;
12118;SDS011;6123;48.864;9.200;2023-04-06T12:04:30;6.88;;;6.28;;
12118;SDS011;6123;48.864;9.200;2023-04-06T12:07:01;7.30;;;6.70;;
12118;SDS011;6123;48.864;9.200;2023-04-06T12:09:27;7.03;;;6.43;;
12118;SDS011;6123;48.864;9.200;2023-04-06T12:11:52;7.10;;;6.45;;
12118;SDS011;6123;48.864;9.200;2023-04-06T12:14:18;8.27;;;7.50;;
12118;SDS011;6123;48.864;9.200;2023-04-06T12:16:44;8.57;;;7.72;;
12118;SDS011;6123;48.864;9.200;2023-04-06T12:19:12;7.50;;;6.60;;
12118;SDS011;6123;48.864;9.200;2023-04-06T12:21:37;7.85;;;7.25;;
12118;SDS011;6123;48.864;9.200;2023-04-06T12:24:05;6.90;;;6.30;;
12118;SDS011;6123;48.864;9.200;2023-04-06T12:26:31;8.00;;;7.35;;
12118;SDS011;6123;48.864;9.200;2023-04-06T12:29:00;8.20;;;7.38;;
12118;SDS011;6123;48.864;9.200;2023-04-06T12:31:31;7.25;;;6.65;;
12118;SDS011;6123;48.864;9.200;2023-04-06T12:34:00;7.53;;;6.72;;
12118;SDS011;6123;48.864;9.200;2023-04-06T12:36:28;7.28;;;6.68;;
12118;SDS011;6123;48.864;9.200;2023-04-06T12:38:54;7.78;;;7.13;;
12118;SDS011;6123;48.864;9.200;2023-04-06T12:41:20;7.35;;;6.72;;
12118;SDS011;6123;48.864;9.200;2023-04-06T12:43:46;7.30;;;6.70;;
12118;SDS011;6123;48.864;9.200;2023-04-06T12:46:19;8.07;;;7.15;;
12118;SDS011;6123;48.864;9.200;2023-04-06T12:48:48;7.10;;;6.40;;
12118;SDS011;6123;48.864;9.200;2023-04-06T12:51:13;6.97;;;6.30;;
12118;SDS011;6123;48.864;9.200;2023-04-06T12:53:39;6.80;;;6.20;;
12118;SDS011;6123;48.864;9.200;2023-04-06T12:56:15;7.15;;;6.55;;
12118;SDS011;6123;48.864;9.200;2023-04-06T12:58:42;6.28;;;5.78;;
12118;SDS011;6123;48.864;9.200;2023-04-06T13:01:09;6.30;;;5.72;;
12118;SDS011;6123;48.864;9.200;2023-04-06T13:03:37;6.90;;;6.30;;
12118;SDS011;6123;48.864;9.200;2023-04-06T13:06:03;7.28;;;6.57;;
12118;SDS011;6123;48.864;9.200;2023-04-06T13:08:29;6.35;;;5.75;;
12118;SDS011;6123;48.864;9.200;2023-04-06T13:10:55;7.32;;;6.65;;
12118;SDS011;6123;48.864;9.200;2023-04-06T13:13:28;6.93;;;6.32;;
12118;SDS011;6123;48.864;9.200;2023-04-06T13:15:55;7.82;;;7.13;;
12118;SDS011;6123;48.864;9.200;2023-04-06T13:18:31;6.45;;;5.95;;
12118;SDS011;6123;48.864;9.200;2023-04-06T13:20:57;7.15;;;6.55;;
12118;SDS011;6123;48.864;9.200;2023-04-06T13:23:27;7.00;;;6.00;;
12118;SDS011;6123;48.864;9.200;2023-04-06T13:26:03;7.40;;;6.70;;
12118;SDS011;6123;48.864;9.200;2023-04-06T13:28:29;6.72;;;5.78;;
12118;SDS011;6123;48.864;9.200;2023-04-06T13:30:55;6.80;;;6.10;;
12118;SDS011;6123;48.864;9.200;2023-04-06T13:33:23;8.98;;;6.22;;
12118;SDS011;6123;48.864;9.200;2023-04-06T13:35:49;6.53;;;6.03;;
12118;SDS011;6123;48.864;9.200;2023-04-06T13:38:15;7.07;;;6.38;;
12118;SDS011;6123;48.864;9.200;2023-04-06T13:40:43;6.03;;;5.45;;
12118;SDS011;6123;48.864;9.200;2023-04-06T13:43:09;6.07;;;5.53;;
12118;SDS011;6123;48.864;9.200;2023-04-06T13:45:36;6.32;;;5.82;;
12118;SDS011;6123;48.864;9.200;2023-04-06T13:48:02;6.72;;;6.13;;
12118;SDS011;6123;48.864;9.200;2023-04-06T13:50:28;6.10;;;5.60;;
12118;SDS011;6123;48.864;9.200;2023-04-06T13:52:54;6.65;;;6.05;;
12118;SDS011;6123;48.864;9.200;2023-04-06T13:55:20;6.55;;;5.95;;
12118;SDS011;6123;48.864;9.200;2023-04-06T13:57:46;6.57;;;5.95;;
12118;SDS011;6123;48.864;9.200;2023-04-06T14:00:14;7.13;;;6.43;;
12118;SDS011;6123;48.864;9.200;2023-04-06T14:02:40;6.72;;;5.95;;
12118;SDS011;6123;48.864;9.200;2023-04-06T14:05:06;7.00;;;6.32;;
12118;SDS011;6123;48.864;9.200;2023-04-06T14:07:35;6.40;;;5.90;;
12118;SDS011;6123;48.864;9.200;2023-04-06T14:10:02;6.53;;;6.03;;
12118;SDS011;6123;48.864;9.200;2023-04-06T14:12:28;6.55;;;5.90;;
12118;SDS011;6123;48.864;9.200;2023-04-06T14:14:55;6.63;;;5.88;;
12118;SDS011;6123;48.864;9.200;2023-04-06T14:17:23;6.90;;;6.30;;
12118;SDS011;6123;48.864;9.200;2023-04-06T14:19:48;6.88;;;6.15;;
12118;SDS011;6123;48.864;9.200;2023-04-06T14:22:17;6.25;;;5.65;;
12118;SDS011;6123;48.864;9.200;2023-04-06T14:24:43;6.13;;;5.63;;
12118;SDS011;6123;48.864;9.200;2023-04-06T14:27:11;5.97;;;5.47;;
12118;SDS011;6123;48.864;9.200;2023-04-06T14:29:37;6.88;;;6.18;;
12118;SDS011;6123;48.864;9.200;2023-04-06T14:32:03;5.80;;;5.30;;
12118;SDS011;6123;48.864;9.200;2023-04-06T14:34:29;6.30;;;5.80;;
12118;SDS011;6123;48.864;9.200;2023-04-06T14:36:56;5.85;;;5.35;;
12118;SDS011;6123;48.864;9.200;2023-04-06T14:39:22;6.05;;;5.55;;
12118;SDS011;6123;48.864;9.200;2023-04-06T14:41:48;6.03;;;5.50;;
12118;SDS011;6123;48.864;9.200;2023-04-06T14:44:16;6.70;;;6.10;;
12118;SDS011;6123;48.864;9.200;2023-04-06T14:46:42;6.60;;;5.93;;
12118;SDS011;6123;48.864;9.200;2023-04-06T14:49:10;7.28;;;6.68;;
12118;SDS011;6123;48.864;9.200;2023-04-06T14:51:36;6.78;;;6.15;;
12118;SDS011;6123;48.864;9.200;2023-04-06T14:54:01;6.88;;;5.78;;
12118;SDS011;6123;48.864;9.200;2023-04-06T14:56:28;6.15;;;5.65;;
12118;SDS011;6123;48.864;9.200;2023-04-06T14:58:56;7.35;;;5.65;;
12118;SDS011;6123;48.864;9.200;2023-04-06T15:01:23;6.35;;;5.85;;
12118;SDS011;6123;48.864;9.200;2023-04-06T15:03:49;7.28;;;6.35;;
12118;SDS011;6123;48.864;9.200;2023-04-06T15:06:15;6.40;;;5.80;;
12118;SDS011;6123;48.864;9.200;2023-04-06T15:08:42;6.50;;;5.85;;